createdAt,value
2022-12-28T00:01:05.807Z,55.00
2022-12-28T00:03:32.430Z,55.50
2022-12-28T00:05:59.112Z,55.10
2022-12-28T00:08:25.680Z,54.80
2022-12-28T00:11:08.392Z,55.00
2022-12-28T00:13:41.191Z,55.00
2022-12-28T00:16:08.819Z,55.00
2022-12-28T00:18:35.758Z,55.00
2022-12-28T00:21:03.091Z,55.50
2022-12-28T00:23:30.362Z,55.30
2022-12-28T00:26:04.881Z,54.80
2022-12-28T00:28:31.495Z,54.80
2022-12-28T00:30:58.155Z,55.70
2022-12-28T00:33:26.714Z,55.60
2022-12-28T00:35:57.504Z,55.30
2022-12-28T00:38:24.448Z,54.30
2022-12-28T00:40:51.441Z,54.60
2022-12-28T00:43:18.112Z,54.40
2022-12-28T00:45:45.586Z,56.20
2022-12-28T00:48:12.321Z,55.00
2022-12-28T00:50:38.997Z,55.40
2022-12-28T00:53:06.023Z,54.70
2022-12-28T00:55:33.014Z,55.70
2022-12-28T00:57:59.956Z,55.20
2022-12-28T01:00:26.892Z,54.30
2022-12-28T01:02:53.658Z,55.20
2022-12-28T01:05:20.707Z,55.10
2022-12-28T01:07:47.326Z,54.70
2022-12-28T01:10:14.069Z,54.70
2022-12-28T01:12:40.787Z,55.00
2022-12-28T01:15:08.401Z,54.70
2022-12-28T01:17:35.051Z,54.20
2022-12-28T01:20:01.703Z,54.10
2022-12-28T01:22:28.303Z,54.40
2022-12-28T01:24:54.972Z,54.10
2022-12-28T01:27:21.616Z,54.80
2022-12-28T01:29:48.179Z,54.20
2022-12-28T01:32:14.777Z,55.00
2022-12-28T01:34:41.357Z,54.90
2022-12-28T01:37:07.962Z,53.90
2022-12-28T01:39:34.647Z,54.20
2022-12-28T01:42:01.561Z,54.10
2022-12-28T01:44:37.889Z,54.40
2022-12-28T01:47:06.413Z,54.40
2022-12-28T01:49:36.454Z,54.30
2022-12-28T01:52:09.296Z,54.20
2022-12-28T01:54:38.099Z,54.10
2022-12-28T01:57:04.826Z,54.20
2022-12-28T01:59:33.485Z,54.20
2022-12-28T02:02:00.216Z,54.10
2022-12-28T02:04:27.226Z,54.30
2022-12-28T02:06:54.344Z,54.30
2022-12-28T02:09:22.885Z,54.10
2022-12-28T02:11:49.839Z,54.10
2022-12-28T02:14:18.126Z,54.30
2022-12-28T02:16:44.861Z,54.30
2022-12-28T02:19:13.741Z,53.90
2022-12-28T02:21:46.182Z,53.70
2022-12-28T02:24:15.935Z,53.90
2022-12-28T02:26:42.512Z,54.50
2022-12-28T02:29:14.212Z,54.90
2022-12-28T02:31:44.187Z,56.00
2022-12-28T02:34:10.733Z,55.20
2022-12-28T02:36:41.638Z,55.00
2022-12-28T02:39:14.681Z,54.80
2022-12-28T02:41:43.147Z,54.40
2022-12-28T02:44:09.832Z,54.80
2022-12-28T02:46:55.157Z,54.40
2022-12-28T02:49:41.143Z,54.30
2022-12-28T02:52:14.350Z,54.20
2022-12-28T02:55:11.015Z,54.20
2022-12-28T02:57:48.586Z,54.20
2022-12-28T03:00:19.411Z,54.20
2022-12-28T03:02:49.062Z,54.20
2022-12-28T03:05:18.921Z,54.10
2022-12-28T03:08:08.947Z,54.10
2022-12-28T03:10:42.176Z,54.10
2022-12-28T03:13:35.643Z,54.10
2022-12-28T03:16:06.727Z,54.10
2022-12-28T03:18:52.690Z,54.20
2022-12-28T03:21:38.828Z,54.10
2022-12-28T03:24:25.598Z,54.00
2022-12-28T03:27:12.319Z,54.10
2022-12-28T03:30:03.347Z,54.20
2022-12-28T03:32:30.274Z,53.80
2022-12-28T03:34:57.067Z,54.40
2022-12-28T03:37:25.667Z,53.70
2022-12-28T03:39:56.153Z,54.30
2022-12-28T03:42:44.449Z,54.60
2022-12-28T03:45:11.021Z,54.20
2022-12-28T03:47:38.670Z,53.70
2022-12-28T03:50:05.983Z,54.00
2022-12-28T03:52:32.922Z,54.00
2022-12-28T03:54:59.603Z,54.30
2022-12-28T03:57:27.278Z,55.10
2022-12-28T03:59:54.018Z,53.60
2022-12-28T04:02:20.783Z,54.50
2022-12-28T04:04:47.419Z,53.90
2022-12-28T04:07:14.038Z,53.90
2022-12-28T04:09:40.617Z,54.40
2022-12-28T04:12:07.249Z,53.50
2022-12-28T04:14:33.813Z,54.40
2022-12-28T04:17:00.431Z,54.30
2022-12-28T04:19:27.664Z,53.80
2022-12-28T04:21:54.231Z,53.80
2022-12-28T04:24:20.820Z,53.60
2022-12-28T04:26:47.406Z,53.70
2022-12-28T04:29:14.039Z,53.80
2022-12-28T04:31:42.199Z,54.00
2022-12-28T04:34:08.883Z,53.80
2022-12-28T04:36:35.694Z,53.70
2022-12-28T04:39:02.295Z,54.10
2022-12-28T04:41:28.885Z,53.70
2022-12-28T04:43:55.863Z,53.80
2022-12-28T04:46:22.971Z,53.60
2022-12-28T04:48:49.535Z,53.60
2022-12-28T04:51:17.751Z,53.60
2022-12-28T04:53:44.366Z,53.30
2022-12-28T04:56:12.385Z,53.40
2022-12-28T04:58:39.015Z,53.80
2022-12-28T05:01:10.893Z,53.30
2022-12-28T05:03:38.383Z,54.10
2022-12-28T05:06:07.318Z,53.40
2022-12-28T05:08:34.726Z,53.50
2022-12-28T05:11:02.029Z,53.70
2022-12-28T05:13:28.612Z,54.10
2022-12-28T05:15:55.415Z,53.30
2022-12-28T05:18:22.011Z,53.40
2022-12-28T05:20:48.567Z,53.20
2022-12-28T05:23:15.111Z,53.20
2022-12-28T05:25:41.721Z,53.80
2022-12-28T05:28:08.269Z,53.90
2022-12-28T05:30:34.931Z,53.40
2022-12-28T05:33:01.488Z,53.60
2022-12-28T05:35:28.076Z,53.30
2022-12-28T05:37:54.706Z,54.30
2022-12-28T05:40:21.333Z,53.20
2022-12-28T05:42:51.449Z,53.40
2022-12-28T05:45:18.463Z,53.40
2022-12-28T05:47:45.027Z,53.40
2022-12-28T05:50:11.659Z,53.30
2022-12-28T05:52:38.881Z,53.80
2022-12-28T05:55:05.806Z,53.30
2022-12-28T05:57:32.422Z,53.30
2022-12-28T05:59:58.958Z,53.40
2022-12-28T06:02:27.599Z,53.30
2022-12-28T06:04:54.542Z,53.20
2022-12-28T06:07:21.215Z,53.50
2022-12-28T06:09:47.802Z,53.50
2022-12-28T06:12:14.419Z,53.90
2022-12-28T06:14:41.014Z,53.30
2022-12-28T06:17:07.643Z,53.50
2022-12-28T06:19:34.378Z,53.20
2022-12-28T06:22:00.944Z,53.70
2022-12-28T06:24:27.477Z,53.40
2022-12-28T06:26:54.051Z,53.30
2022-12-28T06:29:21.209Z,53.50
2022-12-28T06:31:49.066Z,53.60
2022-12-28T06:34:15.679Z,53.40
2022-12-28T06:36:43.967Z,53.30
2022-12-28T06:39:12.131Z,53.40
2022-12-28T06:41:39.006Z,53.40
2022-12-28T06:44:06.475Z,53.50
2022-12-28T06:46:33.121Z,53.40
2022-12-28T06:48:59.877Z,53.50
2022-12-28T06:51:28.060Z,53.50
2022-12-28T06:53:54.970Z,53.40
2022-12-28T06:56:25.920Z,53.50
2022-12-28T06:58:57.041Z,53.40
2022-12-28T07:01:31.959Z,53.30
2022-12-28T07:03:58.953Z,53.40
2022-12-28T07:06:26.820Z,53.50
2022-12-28T07:08:58.427Z,54.00
2022-12-28T07:11:25.172Z,53.70
2022-12-28T07:13:51.815Z,53.70
2022-12-28T07:16:20.193Z,53.70
2022-12-28T07:18:47.203Z,53.70
2022-12-28T07:21:15.354Z,53.70
2022-12-28T07:23:42.148Z,53.90
2022-12-28T07:26:10.142Z,53.70
2022-12-28T07:28:37.464Z,53.60
2022-12-28T07:31:12.432Z,53.80
2022-12-28T07:33:39.567Z,53.70
2022-12-28T07:36:07.337Z,53.80
2022-12-28T07:38:34.211Z,53.80
2022-12-28T07:41:03.771Z,54.30
2022-12-28T07:43:30.534Z,54.20
2022-12-28T07:46:01.218Z,53.90
2022-12-28T07:48:28.887Z,54.00
2022-12-28T07:50:55.443Z,54.00
2022-12-28T08:31:50.300Z,54.40
2022-12-28T08:34:18.563Z,54.60
2022-12-28T08:36:45.254Z,54.50
2022-12-28T08:39:12.101Z,55.50
2022-12-28T08:41:38.771Z,54.40
2022-12-28T08:44:05.693Z,54.30
2022-12-28T08:46:33.134Z,54.20
2022-12-28T08:49:00.187Z,54.40
2022-12-28T08:51:29.879Z,54.40
2022-12-28T08:53:56.439Z,54.20
2022-12-28T08:56:24.476Z,54.50
2022-12-28T08:58:51.762Z,54.60
2022-12-28T09:01:28.787Z,54.50
2022-12-28T09:03:57.701Z,54.50
2022-12-28T09:06:25.663Z,54.50
2022-12-28T09:09:08.567Z,55.10
2022-12-28T09:11:35.583Z,54.50
2022-12-28T09:14:02.983Z,54.40
2022-12-28T09:16:29.656Z,54.30
2022-12-28T09:18:57.807Z,54.30
2022-12-28T09:21:25.316Z,54.30
2022-12-28T09:23:51.988Z,54.20
2022-12-28T09:26:19.925Z,54.20
2022-12-28T09:28:47.773Z,54.70
2022-12-28T09:31:14.714Z,54.50
2022-12-28T09:36:46.789Z,54.30
2022-12-28T09:39:14.584Z,54.30
2022-12-28T09:41:47.699Z,54.40
2022-12-28T09:44:17.399Z,54.80
2022-12-28T09:46:50.105Z,55.00
2022-12-28T09:49:17.983Z,54.40
2022-12-28T09:51:50.778Z,54.60
2022-12-28T09:54:17.440Z,54.50
2022-12-28T09:56:44.819Z,54.50
2022-12-28T09:59:15.110Z,54.40
2022-12-28T10:01:42.627Z,55.60
2022-12-28T10:04:10.892Z,54.60
2022-12-28T10:06:37.819Z,55.30
2022-12-28T10:09:05.926Z,55.60
2022-12-28T10:11:42.782Z,54.20
2022-12-28T10:14:35.560Z,54.60
2022-12-28T10:17:02.487Z,54.70
2022-12-28T10:19:29.377Z,55.80
2022-12-28T10:22:00.427Z,54.70
2022-12-28T10:24:32.201Z,54.80
2022-12-28T10:27:00.188Z,55.60
2022-12-28T10:29:27.257Z,55.90
2022-12-28T10:32:01.289Z,55.90
2022-12-28T10:34:33.486Z,55.00
2022-12-28T10:37:16.895Z,56.00
2022-12-28T10:40:00.745Z,55.00
2022-12-28T10:42:41.094Z,55.20
2022-12-28T10:45:16.631Z,55.10
2022-12-28T10:47:44.212Z,55.20
2022-12-28T10:50:38.257Z,56.20
2022-12-28T10:53:05.281Z,55.10
2022-12-28T10:55:33.498Z,55.20
2022-12-28T10:58:31.888Z,55.40
2022-12-28T11:01:02.422Z,55.50
2022-12-28T11:03:35.433Z,55.60
2022-12-28T11:06:12.669Z,55.60
2022-12-28T11:08:40.112Z,55.70
2022-12-28T11:11:07.332Z,55.50
2022-12-28T11:13:33.977Z,55.50
2022-12-28T11:16:00.939Z,55.50
2022-12-28T11:18:31.968Z,56.40
2022-12-28T11:21:01.581Z,55.70
2022-12-28T11:23:31.645Z,55.70
2022-12-28T11:25:58.807Z,55.70
2022-12-28T11:28:25.353Z,55.70
2022-12-28T11:30:52.416Z,55.80
2022-12-28T11:33:39.567Z,56.00
2022-12-28T11:36:10.903Z,55.60
2022-12-28T11:38:39.754Z,55.80
2022-12-28T11:41:06.537Z,55.80
2022-12-28T11:43:39.647Z,55.70
2022-12-28T11:46:26.215Z,56.00
2022-12-28T11:48:57.703Z,55.90
2022-12-28T11:51:24.287Z,55.80
2022-12-28T11:54:11.099Z,55.90
2022-12-28T11:56:43.734Z,55.70
2022-12-28T11:59:21.253Z,56.50
2022-12-28T12:01:48.474Z,55.90
2022-12-28T12:04:29.757Z,55.80
2022-12-28T12:07:01.334Z,56.00
2022-12-28T12:09:32.745Z,56.00
2022-12-28T12:12:00.670Z,56.00
2022-12-28T12:14:30.309Z,55.80
2022-12-28T12:17:03.073Z,55.80
2022-12-28T12:19:31.744Z,55.90
2022-12-28T12:22:14.481Z,56.40
2022-12-28T12:24:54.942Z,55.80
2022-12-28T12:27:33.721Z,56.10
2022-12-28T12:30:01.953Z,55.90
2022-12-28T12:32:36.784Z,56.00
2022-12-28T12:35:07.183Z,56.10
2022-12-28T12:37:57.140Z,56.30
2022-12-28T12:40:39.057Z,56.00
2022-12-28T12:43:17.763Z,56.00
2022-12-28T12:46:03.278Z,56.00
2022-12-28T12:48:52.270Z,56.00
2022-12-28T12:51:18.865Z,56.10
2022-12-28T12:53:58.238Z,56.50
2022-12-28T12:56:39.469Z,56.00
2022-12-28T12:59:12.180Z,56.20
2022-12-28T13:01:58.979Z,56.50
2022-12-28T13:04:27.251Z,56.90
2022-12-28T13:06:58.381Z,56.70
2022-12-28T13:09:26.283Z,56.60
2022-12-28T13:11:53.022Z,56.80
2022-12-28T13:14:21.226Z,56.70
2022-12-28T13:16:50.054Z,56.40
2022-12-28T13:19:19.530Z,56.30
2022-12-28T13:21:49.089Z,56.50
2022-12-28T13:24:27.240Z,56.50
2022-12-28T13:26:58.498Z,56.30
2022-12-28T13:29:32.645Z,56.50
2022-12-28T13:31:59.241Z,56.50
2022-12-28T13:34:37.645Z,56.40
2022-12-28T13:37:13.754Z,56.50
2022-12-28T13:39:42.459Z,56.40
2022-12-28T13:42:14.590Z,56.90
2022-12-28T13:44:43.617Z,56.40
2022-12-28T13:47:31.534Z,57.40
2022-12-28T13:50:09.579Z,56.40
2022-12-28T13:52:39.858Z,56.50
2022-12-28T13:55:10.449Z,56.60
2022-12-28T13:57:47.587Z,56.50
2022-12-28T14:00:16.995Z,56.50
2022-12-28T14:02:43.637Z,56.60
2022-12-28T14:05:16.478Z,56.50
2022-12-28T14:07:43.332Z,56.50
2022-12-28T14:10:10.722Z,56.60
2022-12-28T14:12:37.679Z,56.50
2022-12-28T14:15:04.969Z,56.40
2022-12-28T14:17:31.692Z,56.40
2022-12-28T14:19:58.515Z,56.50
2022-12-28T14:22:26.814Z,56.50
2022-12-28T14:25:00.357Z,56.60
2022-12-28T14:27:27.240Z,56.50
2022-12-28T14:29:55.674Z,56.40
2022-12-28T14:32:22.325Z,56.60
2022-12-28T14:37:38.737Z,56.50
2022-12-28T14:40:06.291Z,57.30
2022-12-28T14:42:33.610Z,56.60
2022-12-28T14:45:20.171Z,56.50
2022-12-28T14:47:47.016Z,56.60
2022-12-28T14:50:18.211Z,56.50
2022-12-28T14:52:47.103Z,56.50
2022-12-28T14:55:33.944Z,56.60
2022-12-28T14:58:04.180Z,56.60
2022-12-28T15:00:32.640Z,56.60
2022-12-28T15:03:14.005Z,56.50
2022-12-28T15:05:42.354Z,56.60
2022-12-28T15:08:09.623Z,56.80
2022-12-28T15:10:40.032Z,56.60
2022-12-28T15:13:06.694Z,56.70
2022-12-28T15:15:34.357Z,56.70
2022-12-28T15:18:00.999Z,56.80
2022-12-28T15:20:27.695Z,56.60
2022-12-28T15:22:54.403Z,56.60
2022-12-28T15:25:21.221Z,56.60
2022-12-28T15:27:51.297Z,56.60
2022-12-28T15:30:20.625Z,56.60
2022-12-28T15:32:50.908Z,56.60
2022-12-28T15:35:17.559Z,56.60
2022-12-28T15:37:44.190Z,56.60
2022-12-28T15:40:10.994Z,56.90
2022-12-28T15:42:40.631Z,56.60
2022-12-28T15:45:09.087Z,56.80
2022-12-28T15:47:35.888Z,56.70
2022-12-28T15:50:03.491Z,56.50
2022-12-28T15:52:31.264Z,56.80
2022-12-28T15:54:58.484Z,56.90
2022-12-28T15:57:25.491Z,56.80
2022-12-28T15:59:53.103Z,56.60
2022-12-28T16:02:20.126Z,56.60
2022-12-28T16:04:46.901Z,57.40
2022-12-28T16:07:16.540Z,56.60
2022-12-28T16:09:43.113Z,56.90
2022-12-28T16:12:09.791Z,57.10
2022-12-28T16:14:36.472Z,56.80
2022-12-28T16:17:03.157Z,57.70
2022-12-28T16:19:29.801Z,56.40
2022-12-28T16:21:56.983Z,56.40
2022-12-28T16:24:23.658Z,56.40
2022-12-28T16:26:50.319Z,57.00
2022-12-28T16:29:17.785Z,57.10
2022-12-28T16:31:44.436Z,56.50
2022-12-28T16:34:12.600Z,56.80
2022-12-28T16:36:39.606Z,56.50
2022-12-28T16:39:07.387Z,56.90
2022-12-28T16:41:37.330Z,56.60
2022-12-28T16:44:06.552Z,56.60
2022-12-28T16:46:33.206Z,57.40
2022-12-28T16:49:00.360Z,56.70
2022-12-28T16:51:27.013Z,56.60
2022-12-28T16:53:53.664Z,56.50
2022-12-28T16:56:20.311Z,56.50
2022-12-28T16:58:49.325Z,56.80
2022-12-28T17:01:16.457Z,56.40
2022-12-28T17:03:43.388Z,56.50
2022-12-28T17:06:10.171Z,56.50
2022-12-28T17:08:36.830Z,56.90
2022-12-28T17:11:06.924Z,56.40
2022-12-28T17:13:34.097Z,57.20
2022-12-28T17:16:01.031Z,56.40
2022-12-28T17:18:27.935Z,58.00
2022-12-28T17:20:54.882Z,56.40
2022-12-28T17:23:21.757Z,56.50
2022-12-28T17:25:53.260Z,56.50
2022-12-28T17:28:20.834Z,56.60
2022-12-28T17:30:47.517Z,56.60
2022-12-28T17:33:15.283Z,56.60
2022-12-28T17:35:42.228Z,56.70
2022-12-28T17:38:08.989Z,56.70
2022-12-28T17:40:38.101Z,57.60
2022-12-28T17:43:04.793Z,57.30
2022-12-28T17:45:31.616Z,56.90
2022-12-28T17:47:58.218Z,57.00
2022-12-28T17:50:24.877Z,56.80
2022-12-28T17:52:51.517Z,56.90
2022-12-28T17:55:18.184Z,56.80
2022-12-28T17:57:44.733Z,57.70
2022-12-28T18:00:12.852Z,56.90
2022-12-28T18:02:39.709Z,56.90
2022-12-28T18:05:06.706Z,57.00
2022-12-28T18:07:33.959Z,56.90
2022-12-28T18:10:00.544Z,57.00
2022-12-28T18:12:27.915Z,56.80
2022-12-28T18:14:54.502Z,57.10
2022-12-28T18:17:23.319Z,57.00
2022-12-28T18:19:53.381Z,57.00
2022-12-28T18:22:22.995Z,57.10
2022-12-28T18:24:50.545Z,57.00
2022-12-28T18:27:17.348Z,57.00
2022-12-28T18:29:44.601Z,56.90
2022-12-28T18:32:11.344Z,57.10
2022-12-28T18:34:37.937Z,57.60
2022-12-28T18:37:04.571Z,57.00
2022-12-28T18:39:31.256Z,57.00
2022-12-28T18:41:57.808Z,56.90
2022-12-28T18:44:25.104Z,57.10
2022-12-28T18:46:53.038Z,57.00
2022-12-28T18:49:19.935Z,56.90
2022-12-28T18:51:46.576Z,57.80
2022-12-28T18:54:13.251Z,56.90
2022-12-28T18:56:39.898Z,56.90
2022-12-28T18:59:06.467Z,56.90
2022-12-28T19:02:05.418Z,56.80
2022-12-28T19:04:20.812Z,56.70
2022-12-28T19:06:48.369Z,56.70
2022-12-28T19:09:15.011Z,57.00
2022-12-28T19:11:42.313Z,57.60
2022-12-28T19:14:11.117Z,56.60
2022-12-28T19:16:38.024Z,57.40
2022-12-28T19:19:05.004Z,56.50
2022-12-28T19:21:32.946Z,56.40
2022-12-28T19:24:03.105Z,56.80
2022-12-28T19:26:30.459Z,56.40
2022-12-28T19:28:58.116Z,56.50
2022-12-28T19:31:24.780Z,56.80
2022-12-28T19:33:51.415Z,57.50
2022-12-28T19:36:17.995Z,57.00
2022-12-28T19:38:44.733Z,57.00
2022-12-28T19:41:13.817Z,57.00
2022-12-28T19:43:40.487Z,57.20
2022-12-28T19:46:09.084Z,57.10
2022-12-28T19:48:36.422Z,57.20
2022-12-28T19:51:03.071Z,57.40
2022-12-28T19:53:29.657Z,57.30
2022-12-28T19:56:02.964Z,57.40
2022-12-28T19:58:31.204Z,58.10
2022-12-28T20:01:03.414Z,57.50
2022-12-28T20:03:30.271Z,57.70
2022-12-28T20:05:56.992Z,57.60
2022-12-28T20:08:23.569Z,57.60
2022-12-28T20:10:56.616Z,57.60
2022-12-28T20:13:23.316Z,57.80
2022-12-28T20:15:50.010Z,57.80
2022-12-28T20:18:16.857Z,57.90
2022-12-28T20:21:17.206Z,57.80
2022-12-28T20:23:29.987Z,57.80
2022-12-28T20:25:56.918Z,57.90
2022-12-28T20:28:24.399Z,57.80
2022-12-28T20:30:51.101Z,57.80
2022-12-28T20:33:18.577Z,57.80
2022-12-28T20:36:01.975Z,58.40
2022-12-28T20:38:29.198Z,57.80
2022-12-28T20:41:02.919Z,57.80
2022-12-28T20:43:29.534Z,57.80
2022-12-28T20:45:56.203Z,57.80
2022-12-28T20:48:22.919Z,57.70
2022-12-28T20:50:54.797Z,57.80
2022-12-28T20:53:21.363Z,57.80
2022-12-28T20:55:48.533Z,57.70
2022-12-28T20:58:15.277Z,57.80
2022-12-28T21:00:41.892Z,57.60
2022-12-28T21:03:08.484Z,57.50
2022-12-28T21:05:35.314Z,57.20
2022-12-28T21:08:01.934Z,56.90
2022-12-28T21:10:28.557Z,56.80
2022-12-28T21:12:55.140Z,56.90
2022-12-28T21:15:21.813Z,56.90
2022-12-28T21:17:48.360Z,57.10
2022-12-28T21:20:15.012Z,57.40
2022-12-28T21:22:41.579Z,57.50
2022-12-28T21:25:08.511Z,57.30
2022-12-28T21:27:35.091Z,57.10
2022-12-28T21:30:01.663Z,57.10
2022-12-28T21:32:28.296Z,57.10
2022-12-28T21:34:54.883Z,56.90
2022-12-28T21:37:36.910Z,56.90
2022-12-28T21:40:05.358Z,57.00
2022-12-28T21:42:31.954Z,56.90
2022-12-28T21:44:58.517Z,56.90
2022-12-28T21:47:25.090Z,57.00
2022-12-28T21:49:51.758Z,57.00
2022-12-28T21:52:18.385Z,56.90
2022-12-28T21:54:44.970Z,56.90
2022-12-28T21:57:11.900Z,56.90
2022-12-28T21:59:38.602Z,57.10
2022-12-28T22:02:34.183Z,56.80
2022-12-28T22:05:20.950Z,56.90
2022-12-28T22:07:47.497Z,56.80
2022-12-28T22:10:32.708Z,56.90
2022-12-28T22:12:59.285Z,56.90
2022-12-28T22:15:45.130Z,56.80
2022-12-28T22:18:44.469Z,56.70
2022-12-28T22:21:06.257Z,56.70
2022-12-28T22:23:34.845Z,56.90
2022-12-28T22:26:01.914Z,56.60
2022-12-28T22:28:28.524Z,56.60
2022-12-28T22:30:55.982Z,56.60
2022-12-28T22:33:22.575Z,56.70
2022-12-28T22:35:49.161Z,56.70
2022-12-28T22:38:15.758Z,56.70
2022-12-28T22:40:42.302Z,56.50
2022-12-28T22:43:08.941Z,56.60
2022-12-28T22:45:35.667Z,56.60
2022-12-28T22:48:02.310Z,56.60
2022-12-28T22:50:29.232Z,56.80
2022-12-28T22:52:56.236Z,56.50
2022-12-28T22:55:22.809Z,56.60
2022-12-28T22:57:49.422Z,56.60
2022-12-28T23:00:16.281Z,56.60
2022-12-28T23:02:43.559Z,56.70
2022-12-28T23:05:10.312Z,56.70
2022-12-28T23:07:38.549Z,56.60
2022-12-28T23:10:06.286Z,56.60
2022-12-28T23:12:34.299Z,56.70
2022-12-28T23:15:16.304Z,56.70
2022-12-28T23:17:42.928Z,56.80
2022-12-28T23:20:28.674Z,56.80
2022-12-28T23:22:57.992Z,56.80
2022-12-28T23:25:44.360Z,56.70
2022-12-28T23:28:12.724Z,57.50
2022-12-28T23:30:40.785Z,57.00
2022-12-28T23:33:07.490Z,56.90
2022-12-28T23:35:34.271Z,56.80
2022-12-28T23:38:00.827Z,56.90
2022-12-28T23:40:27.434Z,57.00
2022-12-28T23:42:54.330Z,57.00
2022-12-28T23:45:21.429Z,57.00
2022-12-28T23:47:48.064Z,57.00
2022-12-28T23:50:15.767Z,57.00
2022-12-28T23:52:42.474Z,57.00
2022-12-28T23:55:10.069Z,57.10
2022-12-28T23:57:36.781Z,57.10
